createdAt,value
2019-05-20T00:00:39.556Z,110.50
2019-05-20T00:01:39.592Z,110.90
2019-05-20T00:02:39.519Z,145.50
2019-05-20T00:03:39.506Z,82.10
2019-05-20T00:04:39.468Z,83.40
2019-05-20T00:05:39.721Z,90.40
2019-05-20T00:06:39.417Z,174.50
2019-05-20T00:07:39.427Z,122.20
2019-05-20T00:08:39.367Z,139.80
2019-05-20T00:09:39.447Z,116.40
2019-05-20T00:10:39.322Z,125.30
2019-05-20T00:11:39.296Z,140.20
2019-05-20T00:12:39.370Z,113.90
2019-05-20T00:13:39.254Z,110.40
2019-05-20T00:14:39.283Z,119.10
2019-05-20T00:15:39.206Z,105.00
2019-05-20T00:16:39.190Z,115.90
2019-05-20T00:17:39.149Z,102.50
2019-05-20T00:18:39.199Z,106.90
2019-05-20T00:19:39.106Z,103.20
2019-05-20T00:20:39.117Z,96.20
2019-05-20T00:21:39.119Z,85.80
2019-05-20T00:22:39.028Z,95.90
2019-05-20T00:23:39.029Z,97.00
2019-05-20T00:24:38.998Z,94.70
2019-05-20T00:25:39.052Z,97.20
2019-05-20T00:26:38.942Z,99.60
2019-05-20T00:27:38.969Z,103.80
2019-05-20T00:28:38.890Z,104.90
2019-05-20T00:29:38.991Z,102.10
2019-05-20T00:30:38.857Z,95.30
2019-05-20T00:31:38.886Z,94.30
2019-05-20T00:32:41.679Z,94.00
2019-05-20T00:33:38.800Z,89.10
2019-05-20T00:34:38.751Z,94.70
2019-05-20T00:35:38.809Z,90.60
2019-05-20T00:36:38.697Z,83.90
2019-05-20T00:37:38.668Z,85.50
2019-05-20T00:38:38.647Z,80.40
2019-05-20T00:39:38.739Z,85.60
2019-05-20T00:40:38.600Z,80.00
2019-05-20T00:41:38.649Z,79.40
2019-05-20T00:42:38.546Z,80.40
2019-05-20T00:43:38.558Z,81.50
2019-05-20T00:44:38.506Z,74.50
2019-05-20T00:45:38.584Z,77.10
2019-05-20T00:46:38.457Z,74.00
2019-05-20T00:47:38.487Z,78.80
2019-05-20T00:48:38.417Z,72.10
2019-05-20T00:49:38.516Z,76.10
2019-05-20T00:50:38.361Z,72.90
2019-05-20T00:51:38.408Z,70.30
2019-05-20T00:52:38.326Z,72.60
2019-05-20T00:53:38.288Z,73.80
2019-05-20T00:54:38.265Z,74.00
2019-05-20T00:55:38.338Z,69.40
2019-05-20T00:56:38.218Z,74.60
2019-05-20T00:57:38.248Z,72.40
2019-05-20T00:58:38.258Z,75.80
2019-05-20T00:59:38.149Z,73.40
2019-05-20T01:00:38.168Z,72.80
2019-05-20T01:01:38.105Z,69.00
2019-05-20T01:02:38.187Z,72.00
2019-05-20T01:03:38.062Z,75.50
2019-05-20T01:04:38.097Z,74.70
2019-05-20T01:05:37.998Z,73.90
2019-05-20T01:06:38.018Z,72.20
2019-05-20T01:07:37.958Z,73.10
2019-05-20T01:08:38.022Z,68.60
2019-05-20T01:09:37.909Z,66.10
2019-05-20T01:10:37.935Z,63.90
2019-05-20T01:11:37.857Z,64.10
2019-05-20T01:12:37.956Z,65.60
2019-05-20T01:13:37.809Z,63.60
2019-05-20T01:14:37.787Z,61.40
2019-05-20T01:15:37.866Z,66.90
2019-05-20T01:16:37.735Z,68.90
2019-05-20T01:17:37.776Z,64.20
2019-05-20T01:18:37.685Z,66.70
2019-05-20T01:19:37.678Z,66.90
2019-05-20T01:20:37.650Z,67.50
2019-05-20T01:21:37.710Z,67.10
2019-05-20T01:22:37.598Z,66.50
2019-05-20T01:23:37.615Z,66.00
2019-05-20T01:24:37.548Z,71.40
2019-05-20T01:25:37.519Z,67.90
2019-05-20T01:26:37.540Z,63.50
2019-05-20T01:27:37.467Z,66.60
2019-05-20T01:28:37.548Z,68.30
2019-05-20T01:29:37.427Z,67.60
2019-05-20T01:30:37.422Z,64.20
2019-05-20T01:31:37.379Z,62.90
2019-05-20T01:32:37.379Z,66.30
2019-05-20T01:33:37.330Z,64.00
2019-05-20T01:34:37.480Z,61.20
2019-05-20T01:35:37.275Z,66.60
2019-05-20T01:36:37.296Z,61.60
2019-05-20T01:37:37.238Z,64.80
2019-05-20T01:38:37.320Z,61.30
2019-05-20T01:39:37.187Z,62.00
2019-05-20T01:40:37.277Z,63.50
2019-05-20T01:41:37.141Z,61.20
2019-05-20T01:42:37.141Z,60.00
2019-05-20T01:43:37.099Z,62.20
2019-05-20T01:44:37.157Z,58.40
2019-05-20T01:45:37.047Z,51.30
2019-05-20T01:46:37.028Z,48.90
2019-05-20T01:47:37.085Z,50.40
2019-05-20T01:48:36.978Z,50.60
2019-05-20T01:49:36.978Z,48.20
2019-05-20T01:50:36.939Z,44.90
2019-05-20T01:51:36.906Z,45.70
2019-05-20T01:52:36.890Z,44.40
2019-05-20T01:53:36.907Z,42.50
2019-05-20T01:54:36.841Z,43.70
2019-05-20T01:55:36.917Z,42.90
2019-05-20T01:56:36.786Z,42.90
2019-05-20T01:57:36.838Z,43.50
2019-05-20T01:58:39.511Z,42.60
2019-05-20T01:59:36.761Z,43.60
2019-05-20T02:00:36.720Z,42.30
2019-05-20T02:01:36.758Z,42.10
2019-05-20T02:02:36.636Z,42.20
2019-05-20T02:03:36.679Z,43.80
2019-05-20T02:04:36.611Z,43.20
2019-05-20T02:05:36.587Z,43.50
2019-05-20T02:06:36.547Z,42.50
2019-05-20T02:07:36.530Z,43.10
2019-05-20T02:08:36.510Z,43.00
2019-05-20T02:09:36.507Z,42.80
2019-05-20T02:10:36.459Z,41.80
2019-05-20T02:11:36.529Z,41.10
2019-05-20T02:12:36.493Z,39.40
2019-05-20T02:13:36.398Z,38.90
2019-05-20T02:14:36.448Z,41.30
2019-05-20T02:15:36.338Z,40.00
2019-05-20T02:16:36.357Z,39.60
2019-05-20T02:17:36.298Z,40.60
2019-05-20T02:18:36.268Z,38.50
2019-05-20T02:19:36.277Z,39.20
2019-05-20T02:20:36.223Z,40.50
2019-05-20T02:21:36.299Z,38.10
2019-05-20T02:22:36.175Z,39.70
2019-05-20T02:23:36.150Z,38.70
2019-05-20T02:24:36.128Z,36.80
2019-05-20T02:25:36.130Z,37.60
2019-05-20T02:26:36.066Z,38.70
2019-05-20T02:27:36.127Z,39.90
2019-05-20T02:28:36.136Z,39.10
2019-05-20T02:29:36.008Z,36.50
2019-05-20T02:30:36.049Z,37.40
2019-05-20T02:31:36.006Z,37.10
2019-05-20T02:32:35.957Z,36.70
2019-05-20T02:33:51.157Z,36.60
2019-05-20T02:34:35.897Z,37.00
2019-05-20T02:35:35.884Z,36.80
2019-05-20T02:36:35.850Z,36.90
2019-05-20T02:37:35.891Z,36.50
2019-05-20T02:38:35.805Z,38.70
2019-05-20T02:39:35.767Z,37.20
2019-05-20T02:40:35.808Z,37.00
2019-05-20T02:41:35.718Z,37.80
2019-05-20T02:42:35.719Z,38.00
2019-05-20T02:43:35.681Z,37.70
2019-05-20T02:44:35.647Z,36.80
2019-05-20T02:45:35.626Z,37.80
2019-05-20T02:46:35.649Z,39.60
2019-05-20T02:47:35.576Z,36.50
2019-05-20T02:48:35.665Z,38.00
2019-05-20T02:49:35.527Z,37.20
2019-05-20T02:50:35.578Z,38.50
2019-05-20T02:51:35.475Z,37.80
2019-05-20T02:52:35.497Z,40.20
2019-05-20T02:53:35.447Z,39.30
2019-05-20T02:54:35.498Z,38.40
2019-05-20T02:55:35.403Z,39.40
2019-05-20T02:56:35.407Z,41.00
2019-05-20T02:57:35.345Z,38.60
2019-05-20T02:58:35.432Z,38.90
2019-05-20T02:59:35.295Z,37.00
2019-05-20T03:00:35.298Z,38.80
2019-05-20T03:01:35.351Z,39.10
2019-05-20T03:02:35.232Z,36.70
2019-05-20T03:03:35.257Z,36.40
2019-05-20T03:04:35.180Z,37.10
2019-05-20T03:05:35.178Z,35.00
2019-05-20T03:06:35.133Z,35.90
2019-05-20T03:07:35.187Z,36.30
2019-05-20T03:08:35.086Z,36.10
2019-05-20T03:09:35.106Z,35.20
2019-05-20T03:10:35.042Z,36.40
2019-05-20T03:11:35.020Z,36.00
2019-05-20T03:12:35.019Z,35.90
2019-05-20T03:13:34.957Z,34.30
2019-05-20T03:14:35.030Z,34.80
2019-05-20T03:15:34.925Z,33.10
2019-05-20T03:16:34.896Z,33.70
2019-05-20T03:17:34.868Z,33.10
2019-05-20T03:18:34.956Z,33.20
2019-05-20T03:19:34.844Z,33.20
2019-05-20T03:20:34.866Z,34.50
2019-05-20T03:21:34.868Z,33.10
2019-05-20T03:22:34.777Z,33.20
2019-05-20T03:23:34.787Z,32.90
2019-05-20T03:24:34.709Z,33.20
2019-05-20T03:25:34.708Z,32.70
2019-05-20T03:26:34.651Z,32.20
2019-05-20T03:27:34.707Z,33.10
2019-05-20T03:28:34.609Z,32.10
2019-05-20T03:29:34.618Z,31.90
2019-05-20T03:30:34.566Z,31.50
2019-05-20T03:31:34.640Z,31.60
2019-05-20T03:32:34.521Z,31.40
2019-05-20T03:33:34.554Z,31.40
2019-05-20T03:34:50.834Z,31.30
2019-05-20T03:35:34.461Z,31.00
2019-05-20T03:36:34.416Z,32.50
2019-05-20T03:37:34.402Z,32.20
2019-05-20T03:38:34.389Z,31.90
2019-05-20T03:39:34.387Z,31.40
2019-05-20T03:40:34.330Z,32.90
2019-05-20T03:41:34.404Z,32.30
2019-05-20T03:42:34.269Z,32.80
2019-05-20T03:43:34.307Z,32.70
2019-05-20T03:44:34.225Z,31.30
2019-05-20T03:45:34.229Z,32.90
2019-05-20T03:46:34.179Z,32.10
2019-05-20T03:47:34.246Z,31.90
2019-05-20T03:48:34.137Z,32.50
2019-05-20T03:49:34.150Z,32.70
2019-05-20T03:50:34.094Z,32.00
2019-05-20T03:51:34.172Z,32.30
2019-05-20T03:52:34.041Z,32.50
2019-05-20T03:53:34.025Z,32.30
2019-05-20T03:54:34.079Z,32.30
2019-05-20T03:55:33.958Z,33.20
2019-05-20T03:56:33.997Z,32.60
2019-05-20T03:57:33.931Z,32.80
2019-05-20T03:58:33.899Z,33.20
2019-05-20T03:59:33.879Z,32.40
2019-05-20T04:00:33.916Z,31.80
2019-05-20T04:01:33.828Z,31.00
2019-05-20T04:02:33.829Z,30.80
2019-05-20T04:03:33.787Z,31.00
2019-05-20T04:04:33.759Z,31.60
2019-05-20T04:05:33.749Z,30.20
2019-05-20T04:06:33.711Z,30.60
2019-05-20T04:07:33.766Z,29.60
2019-05-20T04:08:33.659Z,30.90
2019-05-20T04:09:33.647Z,31.50
2019-05-20T04:10:33.608Z,31.20
2019-05-20T04:11:33.696Z,31.70
2019-05-20T04:12:33.567Z,31.40
2019-05-20T04:13:34.826Z,30.60
2019-05-20T04:14:33.607Z,29.80
2019-05-20T04:15:33.507Z,31.20
2019-05-20T04:16:33.527Z,30.90
2019-05-20T04:17:33.448Z,31.40
2019-05-20T04:18:33.538Z,32.10
2019-05-20T04:19:33.400Z,30.60
2019-05-20T04:20:33.451Z,32.00
2019-05-20T04:21:33.350Z,31.00
2019-05-20T04:22:33.356Z,31.80
2019-05-20T04:23:33.314Z,32.10
2019-05-20T04:24:33.390Z,32.30
2019-05-20T04:25:33.247Z,32.20
2019-05-20T04:26:33.287Z,31.80
2019-05-20T04:27:33.219Z,34.10
2019-05-20T04:28:33.202Z,32.10
2019-05-20T04:29:33.159Z,32.70
2019-05-20T04:30:33.153Z,31.80
2019-05-20T04:31:33.107Z,32.20
2019-05-20T04:32:33.130Z,31.10
2019-05-20T04:33:33.067Z,31.40
2019-05-20T04:34:33.136Z,32.20
2019-05-20T04:35:33.016Z,31.60
2019-05-20T04:36:33.045Z,30.70
2019-05-20T04:37:32.982Z,31.10
2019-05-20T04:38:33.066Z,32.30
2019-05-20T04:39:32.933Z,33.30
2019-05-20T04:40:32.980Z,32.20
2019-05-20T04:41:35.570Z,32.20
2019-05-20T04:42:32.899Z,31.80
2019-05-20T04:43:32.828Z,31.80
2019-05-20T04:44:32.914Z,32.50
2019-05-20T04:45:32.788Z,31.50
2019-05-20T04:46:32.778Z,31.40
2019-05-20T04:47:32.815Z,30.70
2019-05-20T04:48:32.718Z,32.00
2019-05-20T04:49:32.739Z,31.90
2019-05-20T04:50:32.671Z,31.20
2019-05-20T04:51:32.648Z,30.40
2019-05-20T04:52:32.616Z,30.50
2019-05-20T04:53:32.669Z,32.10
2019-05-20T04:54:32.569Z,32.20
2019-05-20T04:55:32.571Z,31.70
2019-05-20T04:56:32.519Z,30.80
2019-05-20T04:57:32.587Z,32.00
2019-05-20T04:58:32.476Z,31.10
2019-05-20T04:59:32.496Z,31.30
2019-05-20T05:00:32.434Z,31.30
2019-05-20T05:01:32.444Z,33.20
2019-05-20T05:02:32.545Z,32.10
2019-05-20T05:03:32.443Z,32.10
2019-05-20T05:04:32.411Z,32.80
2019-05-20T05:05:37.553Z,32.30
2019-05-20T05:06:32.298Z,31.60
2019-05-20T05:07:32.379Z,31.80
2019-05-20T05:08:32.303Z,32.70
2019-05-20T05:09:32.309Z,32.90
2019-05-20T05:10:32.199Z,31.90
2019-05-20T05:11:32.280Z,32.90
2019-05-20T05:12:32.176Z,31.40
2019-05-20T05:13:32.124Z,31.60
2019-05-20T05:14:32.200Z,32.00
2019-05-20T05:15:32.074Z,30.40
2019-05-20T05:16:32.112Z,30.60
2019-05-20T05:17:32.026Z,30.30
2019-05-20T05:18:32.017Z,30.90
2019-05-20T05:19:31.978Z,30.80
2019-05-20T05:20:32.037Z,28.90
2019-05-20T05:21:31.927Z,30.10
2019-05-20T05:22:31.949Z,29.00
2019-05-20T05:23:31.887Z,28.90
2019-05-20T05:24:31.957Z,30.20
2019-05-20T05:25:31.838Z,29.60
2019-05-20T05:26:31.867Z,29.90
2019-05-20T05:27:31.791Z,29.20
2019-05-20T05:28:31.783Z,30.10
2019-05-20T05:29:31.736Z,29.40
2019-05-20T05:30:31.797Z,29.70
2019-05-20T05:31:31.699Z,29.60
2019-05-20T05:32:31.733Z,29.40
2019-05-20T05:33:31.647Z,29.70
2019-05-20T05:34:31.727Z,29.90
2019-05-20T05:35:31.596Z,28.60
2019-05-20T05:36:31.640Z,29.90
2019-05-20T05:37:31.559Z,29.90
2019-05-20T05:38:31.546Z,29.60
2019-05-20T05:39:31.507Z,29.60
2019-05-20T05:40:31.557Z,29.10
2019-05-20T05:41:31.457Z,29.40
2019-05-20T05:42:31.477Z,30.00
2019-05-20T05:43:31.417Z,30.60
2019-05-20T05:44:31.390Z,30.30
2019-05-20T05:45:31.374Z,29.30
2019-05-20T05:46:31.398Z,30.50
2019-05-20T05:47:31.318Z,27.70
2019-05-20T05:48:31.308Z,29.40
2019-05-20T05:49:31.302Z,28.20
2019-05-20T05:50:31.331Z,29.40
2019-05-20T05:51:31.227Z,29.20
2019-05-20T05:52:31.240Z,29.00
2019-05-20T05:53:31.168Z,29.20
2019-05-20T05:54:31.260Z,29.50
2019-05-20T05:55:31.126Z,29.70
2019-05-20T05:56:31.163Z,29.60
2019-05-20T05:57:31.089Z,30.40
2019-05-20T05:58:31.079Z,30.90
2019-05-20T05:59:31.042Z,31.60
2019-05-20T06:00:31.020Z,31.20
2019-05-20T06:01:31.103Z,30.80
2019-05-20T06:02:30.966Z,30.30
2019-05-20T06:03:31.021Z,31.20
2019-05-20T06:04:30.919Z,31.90
2019-05-20T06:05:31.758Z,31.90
2019-05-20T06:06:30.876Z,31.40
2019-05-20T06:07:30.938Z,32.00
2019-05-20T06:08:30.827Z,31.70
2019-05-20T06:09:30.846Z,32.00
2019-05-20T06:10:30.788Z,32.60
2019-05-20T06:11:30.859Z,33.70
2019-05-20T06:12:30.741Z,32.60
2019-05-20T06:13:30.781Z,31.60
2019-05-20T06:14:30.679Z,32.70
2019-05-20T06:15:30.692Z,33.40
2019-05-20T06:16:36.401Z,33.10
2019-05-20T06:17:30.700Z,32.40
2019-05-20T06:18:30.589Z,32.20
2019-05-20T06:19:30.607Z,32.20
2019-05-20T06:20:30.549Z,32.10
2019-05-20T06:21:30.531Z,32.30
2019-05-20T06:22:30.499Z,31.00
2019-05-20T06:23:30.544Z,31.90
2019-05-20T06:24:30.467Z,31.50
2019-05-20T06:25:30.459Z,30.30
2019-05-20T06:26:30.397Z,32.00
2019-05-20T06:27:31.390Z,32.00
2019-05-20T06:28:30.357Z,30.80
2019-05-20T06:29:30.434Z,31.50
2019-05-20T06:30:30.313Z,30.20
2019-05-20T06:31:30.392Z,29.40
2019-05-20T06:32:30.263Z,29.50
2019-05-20T06:33:30.301Z,29.20
2019-05-20T06:34:30.223Z,28.80
2019-05-20T06:35:30.216Z,29.40
2019-05-20T06:36:30.178Z,29.30
2019-05-20T06:37:30.145Z,28.40
2019-05-20T06:38:30.126Z,27.80
2019-05-20T06:39:30.138Z,26.20
2019-05-20T06:40:30.099Z,26.50
2019-05-20T06:41:30.156Z,25.90
2019-05-20T06:42:30.087Z,25.80
2019-05-20T06:43:30.005Z,26.70
2019-05-20T06:44:30.078Z,24.30
2019-05-20T06:45:29.956Z,24.50
2019-05-20T06:46:29.987Z,24.50
2019-05-20T06:47:29.908Z,24.60
2019-05-20T06:48:29.897Z,24.50
2019-05-20T06:49:29.858Z,23.60
2019-05-20T06:50:29.923Z,24.00
2019-05-20T06:51:29.822Z,24.50
2019-05-20T06:52:35.743Z,24.00
2019-05-20T06:53:29.776Z,24.50
2019-05-20T06:54:29.836Z,24.50
2019-05-20T06:55:29.718Z,24.00
2019-05-20T06:56:29.755Z,24.30
2019-05-20T06:57:29.680Z,24.30
2019-05-20T06:58:29.656Z,24.90
2019-05-20T06:59:29.669Z,25.10
2019-05-20T07:00:29.604Z,25.90
2019-05-20T07:01:29.687Z,25.90
2019-05-20T07:02:29.556Z,25.80
2019-05-20T07:03:29.544Z,26.00
2019-05-20T07:04:29.516Z,25.50
2019-05-20T07:05:29.521Z,25.20
2019-05-20T07:06:44.819Z,25.40
2019-05-20T07:07:29.450Z,25.90
2019-05-20T07:08:29.486Z,25.10
2019-05-20T07:09:29.395Z,26.10
2019-05-20T07:10:29.441Z,25.90
2019-05-20T07:11:29.357Z,25.80
2019-05-20T07:12:40.502Z,24.00
2019-05-20T07:13:29.294Z,24.30
2019-05-20T07:14:29.366Z,26.10
2019-05-20T07:15:29.266Z,25.10
2019-05-20T07:16:29.278Z,25.70
2019-05-20T07:17:29.224Z,25.20
2019-05-20T07:18:29.288Z,24.90
2019-05-20T07:19:29.165Z,26.10
2019-05-20T07:20:29.208Z,27.20
2019-05-20T07:21:29.115Z,28.10
2019-05-20T07:22:29.115Z,28.40
2019-05-20T07:23:29.070Z,29.60
2019-05-20T07:24:29.048Z,29.60
2019-05-20T07:25:29.282Z,29.70
2019-05-20T07:26:29.067Z,30.20
2019-05-20T07:27:28.980Z,30.70
2019-05-20T07:28:29.061Z,30.50
2019-05-20T07:29:28.998Z,31.00
2019-05-20T07:30:28.909Z,31.00
2019-05-20T07:31:28.976Z,31.10
2019-05-20T07:32:28.871Z,30.30
2019-05-20T07:33:28.892Z,30.60
2019-05-20T07:34:28.824Z,30.70
2019-05-20T07:35:30.980Z,30.40
2019-05-20T07:36:28.778Z,30.50
2019-05-20T07:37:28.865Z,31.10
2019-05-20T07:38:28.767Z,30.70
2019-05-20T07:39:28.737Z,29.90
2019-05-20T07:40:28.674Z,30.60
2019-05-20T07:41:28.736Z,30.20
2019-05-20T07:42:28.641Z,31.00
2019-05-20T07:43:28.644Z,32.00
2019-05-20T07:44:28.597Z,31.90
2019-05-20T07:45:28.562Z,31.10
2019-05-20T07:46:28.575Z,32.20
2019-05-20T07:47:28.520Z,31.90
2019-05-20T07:48:28.590Z,33.10
2019-05-20T07:49:28.465Z,33.10
2019-05-20T07:50:28.442Z,32.40
2019-05-20T07:51:28.428Z,32.70
2019-05-20T07:52:28.406Z,33.10
2019-05-20T07:53:28.408Z,33.80
2019-05-20T07:54:28.427Z,32.70
2019-05-20T07:55:28.325Z,34.00
2019-05-20T07:56:28.342Z,33.90
2019-05-20T07:57:28.294Z,33.50
2019-05-20T07:58:28.371Z,33.80
2019-05-20T07:59:28.231Z,34.00
2019-05-20T08:00:28.270Z,33.80
2019-05-20T08:01:28.204Z,33.60
2019-05-20T08:02:28.277Z,33.90
2019-05-20T08:03:28.138Z,33.70
2019-05-20T08:04:28.277Z,34.00
2019-05-20T08:05:28.097Z,34.00
2019-05-20T08:06:28.095Z,34.00
2019-05-20T08:07:49.924Z,34.50
2019-05-20T08:08:28.116Z,34.90
2019-05-20T08:09:28.060Z,33.80
2019-05-20T08:10:28.026Z,34.40
2019-05-20T08:11:27.947Z,34.90
2019-05-20T08:12:28.060Z,35.10
2019-05-20T08:13:27.909Z,36.30
2019-05-20T08:14:27.965Z,36.40
2019-05-20T08:15:27.889Z,36.30
2019-05-20T08:16:27.887Z,37.70
2019-05-20T08:17:27.811Z,36.90
2019-05-20T08:18:27.892Z,36.30
2019-05-20T08:19:27.774Z,37.60
2019-05-20T08:20:27.789Z,38.20
2019-05-20T08:21:27.730Z,38.50
2019-05-20T08:22:27.732Z,38.50
2019-05-20T08:23:27.667Z,39.60
2019-05-20T08:24:27.716Z,39.50
2019-05-20T08:25:27.639Z,39.70
2019-05-20T08:26:27.673Z,38.10
2019-05-20T08:27:27.637Z,39.60
2019-05-20T08:28:27.580Z,40.00
2019-05-20T08:29:27.546Z,39.50
2019-05-20T08:30:27.507Z,40.30
2019-05-20T08:31:27.559Z,39.60
2019-05-20T08:32:27.477Z,39.60
2019-05-20T08:33:27.478Z,39.40
2019-05-20T08:34:27.424Z,39.00
2019-05-20T08:35:27.488Z,38.80
2019-05-20T08:36:27.381Z,38.70
2019-05-20T08:37:43.688Z,38.20
2019-05-20T08:38:27.334Z,38.90
2019-05-20T08:39:27.417Z,39.60
2019-05-20T08:40:27.268Z,37.40
2019-05-20T08:41:27.476Z,38.40
2019-05-20T08:42:27.229Z,39.60
2019-05-20T08:43:27.212Z,39.80
2019-05-20T08:44:27.181Z,39.20
2019-05-20T08:45:27.248Z,37.60
2019-05-20T08:46:27.151Z,38.40
2019-05-20T08:47:27.159Z,37.60
2019-05-20T08:48:27.181Z,36.50
2019-05-20T08:49:27.099Z,38.40
2019-05-20T08:50:27.074Z,37.80
2019-05-20T08:51:27.035Z,37.40
2019-05-20T08:52:27.102Z,36.20
2019-05-20T08:53:26.987Z,36.40
2019-05-20T08:54:27.007Z,35.90
2019-05-20T08:55:26.928Z,35.20
2019-05-20T08:56:27.032Z,35.60
2019-05-20T08:57:26.880Z,36.50
2019-05-20T08:58:26.927Z,36.80
2019-05-20T08:59:26.838Z,37.50
2019-05-20T09:00:26.902Z,36.70
2019-05-20T09:01:26.789Z,35.50
2019-05-20T09:02:26.858Z,34.60
2019-05-20T09:03:30.154Z,36.00
2019-05-20T09:04:26.718Z,35.60
2019-05-20T09:05:28.384Z,36.40
2019-05-20T09:06:26.784Z,36.30
2019-05-20T09:07:26.664Z,34.80
2019-05-20T09:08:26.688Z,36.00
2019-05-20T09:09:26.935Z,36.30
2019-05-20T09:10:26.618Z,35.30
2019-05-20T09:11:26.547Z,36.00
2019-05-20T09:12:26.619Z,36.40
2019-05-20T09:13:26.794Z,36.10
2019-05-20T09:14:26.477Z,37.20
2019-05-20T09:15:26.460Z,36.30
2019-05-20T09:16:26.557Z,36.90
2019-05-20T09:17:26.419Z,36.10
2019-05-20T09:18:26.483Z,39.00
2019-05-20T09:19:26.373Z,40.00
2019-05-20T09:20:26.345Z,40.70
2019-05-20T09:21:26.361Z,41.00
2019-05-20T09:22:26.299Z,43.70
2019-05-20T09:23:26.409Z,41.70
2019-05-20T09:24:26.251Z,43.20
2019-05-20T09:25:26.229Z,45.20
2019-05-20T09:26:26.265Z,44.70
2019-05-20T09:27:26.308Z,43.80
2019-05-20T09:28:26.160Z,43.60
2019-05-20T09:29:26.250Z,47.60
2019-05-20T09:30:26.138Z,46.70
2019-05-20T09:31:26.087Z,43.30
2019-05-20T09:32:26.150Z,45.30
2019-05-20T09:33:26.040Z,45.10
2019-05-20T09:34:26.060Z,43.70
2019-05-20T09:35:25.999Z,45.40
2019-05-20T09:36:26.162Z,45.10
2019-05-20T09:37:25.976Z,44.40
2019-05-20T09:38:25.928Z,42.50
2019-05-20T09:39:25.995Z,45.50
2019-05-20T09:40:25.899Z,45.40
2019-05-20T09:41:25.875Z,45.40
2019-05-20T09:42:25.915Z,45.90
2019-05-20T09:43:25.830Z,45.50
2019-05-20T09:44:25.840Z,42.40
2019-05-20T09:45:25.771Z,42.60
2019-05-20T09:46:25.762Z,45.80
2019-05-20T09:47:25.738Z,46.30
2019-05-20T09:48:25.749Z,43.70
2019-05-20T09:49:25.690Z,42.90
2019-05-20T09:50:25.756Z,43.70
2019-05-20T09:51:25.626Z,43.50
2019-05-20T09:52:25.677Z,42.70
2019-05-20T09:53:25.587Z,42.10
2019-05-20T09:54:25.594Z,41.60
2019-05-20T09:55:25.569Z,41.50
2019-05-20T09:56:25.607Z,43.60
2019-05-20T09:57:25.520Z,53.80
2019-05-20T09:58:25.520Z,43.60
2019-05-20T09:59:25.447Z,39.90
2019-05-20T10:00:25.527Z,40.60
2019-05-20T10:01:25.407Z,41.60
2019-05-20T10:02:34.979Z,40.10
2019-05-20T10:03:25.449Z,41.00
2019-05-20T10:04:25.331Z,39.70
2019-05-20T10:05:25.358Z,42.90
2019-05-20T10:06:25.288Z,40.10
2019-05-20T10:07:25.269Z,38.60
2019-05-20T10:08:37.607Z,38.60
2019-05-20T10:09:25.235Z,39.80
2019-05-20T10:10:25.300Z,40.80
2019-05-20T10:11:25.191Z,39.90
2019-05-20T10:12:44.272Z,40.40
2019-05-20T10:13:25.208Z,38.60
2019-05-20T10:14:25.145Z,38.30
2019-05-20T10:15:25.118Z,38.40
2019-05-20T10:16:25.062Z,37.90
2019-05-20T10:17:25.039Z,38.30
2019-05-20T10:18:36.575Z,38.50
2019-05-20T10:19:25.004Z,38.30
2019-05-20T10:20:26.120Z,38.80
2019-05-20T10:21:24.995Z,38.10
2019-05-20T10:22:24.921Z,37.60
2019-05-20T10:23:24.936Z,37.30
2019-05-20T10:24:24.975Z,36.30
2019-05-20T10:25:24.868Z,36.30
2019-05-20T10:26:24.890Z,35.30
2019-05-20T10:27:24.820Z,33.10
2019-05-20T10:28:24.801Z,33.60
2019-05-20T10:29:24.759Z,33.10
2019-05-20T10:30:24.819Z,33.20
2019-05-20T10:31:24.731Z,33.00
2019-05-20T10:32:24.729Z,32.50
2019-05-20T10:33:24.675Z,31.10
2019-05-20T10:34:24.762Z,33.30
2019-05-20T10:35:24.626Z,33.30
2019-05-20T10:36:24.676Z,32.60
2019-05-20T10:37:24.588Z,33.40
2019-05-20T10:38:24.556Z,33.70
2019-05-20T10:39:24.540Z,34.20
2019-05-20T10:40:24.578Z,33.70
2019-05-20T10:41:24.487Z,34.10
2019-05-20T10:42:24.504Z,34.90
2019-05-20T10:43:24.447Z,35.10
2019-05-20T10:44:24.508Z,34.80
2019-05-20T10:45:24.399Z,34.80
2019-05-20T10:46:24.418Z,35.70
2019-05-20T10:47:24.357Z,37.00
2019-05-20T10:48:24.438Z,36.10
2019-05-20T10:49:24.354Z,38.20
2019-05-20T10:50:24.296Z,39.60
2019-05-20T10:51:24.348Z,38.50
2019-05-20T10:52:24.246Z,40.10
2019-05-20T10:53:28.012Z,41.40
2019-05-20T10:54:24.198Z,41.30
2019-05-20T10:55:24.292Z,40.90
2019-05-20T10:56:24.169Z,41.40
2019-05-20T10:57:24.234Z,42.30
2019-05-20T10:58:24.125Z,44.20
2019-05-20T10:59:24.208Z,44.90
2019-05-20T11:00:24.069Z,45.70
2019-05-20T11:01:24.131Z,44.30
2019-05-20T11:02:24.040Z,45.50
2019-05-20T11:03:24.029Z,45.60
2019-05-20T11:04:23.978Z,44.40
2019-05-20T11:05:23.971Z,44.60
2019-05-20T11:06:24.050Z,44.60
2019-05-20T11:07:23.908Z,48.80
2019-05-20T11:08:23.957Z,44.60
2019-05-20T11:09:23.897Z,44.40
2019-05-20T11:10:23.858Z,43.60
2019-05-20T11:11:23.877Z,43.30
2019-05-20T11:12:23.821Z,43.60
2019-05-20T11:13:23.895Z,44.60
2019-05-20T11:14:23.760Z,43.80
2019-05-20T11:15:23.729Z,43.50
2019-05-20T11:16:23.718Z,43.70
2019-05-20T11:17:23.731Z,43.90
2019-05-20T11:18:23.666Z,42.80
2019-05-20T11:19:23.757Z,44.00
2019-05-20T11:20:23.629Z,42.90
2019-05-20T11:21:23.600Z,43.00
2019-05-20T11:22:23.646Z,44.20
2019-05-20T11:23:23.579Z,44.50
2019-05-20T11:24:23.572Z,45.20
2019-05-20T11:25:23.521Z,45.40
2019-05-20T11:26:23.492Z,45.70
2019-05-20T11:27:23.592Z,46.30
2019-05-20T11:28:23.448Z,46.10
2019-05-20T11:29:23.497Z,45.10
2019-05-20T11:30:23.406Z,45.30
2019-05-20T11:31:23.385Z,44.60
2019-05-20T11:32:23.370Z,43.60
2019-05-20T11:33:23.421Z,44.40
2019-05-20T11:34:23.319Z,43.90
2019-05-20T11:35:23.339Z,43.10
2019-05-20T11:36:23.279Z,41.60
2019-05-20T11:37:23.348Z,42.40
2019-05-20T11:38:23.231Z,42.80
2019-05-20T11:39:33.431Z,41.80
2019-05-20T11:40:23.179Z,41.50
2019-05-20T11:41:51.009Z,43.40
2019-05-20T11:42:23.179Z,42.10
2019-05-20T11:43:23.132Z,42.60
2019-05-20T11:44:23.197Z,41.80
2019-05-20T11:45:23.081Z,40.50
2019-05-20T11:46:23.122Z,38.80
2019-05-20T11:47:23.112Z,38.70
2019-05-20T11:48:23.008Z,40.20
2019-05-20T11:49:23.042Z,37.40
2019-05-20T11:50:22.956Z,39.00
2019-05-20T11:51:23.047Z,39.40
2019-05-20T11:52:22.921Z,38.30
2019-05-20T11:53:22.964Z,38.00
2019-05-20T11:54:22.891Z,38.40
2019-05-20T11:55:22.973Z,38.50
2019-05-20T11:56:22.841Z,38.20
2019-05-20T11:57:22.894Z,37.70
2019-05-20T11:58:22.783Z,39.90
2019-05-20T11:59:22.788Z,40.40
2019-05-20T12:00:22.750Z,40.70
2019-05-20T12:01:22.819Z,42.90
2019-05-20T12:02:22.698Z,43.50
2019-05-20T12:03:22.679Z,44.20
2019-05-20T12:04:22.664Z,44.90
2019-05-20T12:05:22.730Z,44.80
2019-05-20T12:06:22.616Z,45.40
2019-05-20T12:07:22.639Z,45.80
2019-05-20T12:08:22.645Z,45.90
2019-05-20T12:09:22.547Z,42.90
2019-05-20T12:10:22.562Z,45.30
2019-05-20T12:11:22.515Z,43.40
2019-05-20T12:12:22.581Z,44.20
2019-05-20T12:13:22.456Z,42.40
2019-05-20T12:14:22.463Z,42.20
2019-05-20T12:15:22.500Z,42.40
2019-05-20T12:16:22.390Z,41.80
2019-05-20T12:17:22.411Z,41.00
2019-05-20T12:18:22.347Z,42.20
2019-05-20T12:19:22.340Z,42.80
2019-05-20T12:20:22.326Z,44.00
2019-05-20T12:21:22.292Z,43.10
2019-05-20T12:22:22.351Z,43.10
2019-05-20T12:23:22.290Z,43.00
2019-05-20T12:24:22.217Z,42.90
2019-05-20T12:25:22.187Z,41.80
2019-05-20T12:26:22.840Z,42.10
2019-05-20T12:27:22.158Z,42.20
2019-05-20T12:28:22.181Z,40.80
2019-05-20T12:29:22.108Z,41.40
2019-05-20T12:30:22.216Z,41.90
2019-05-20T12:31:22.059Z,40.60
2019-05-20T12:32:22.111Z,41.90
2019-05-20T12:33:22.017Z,42.20
2019-05-20T12:34:22.034Z,40.30
2019-05-20T12:35:21.995Z,39.50
2019-05-20T12:36:22.030Z,40.90
2019-05-20T12:37:21.940Z,41.30
2019-05-20T12:38:21.948Z,40.00
2019-05-20T12:39:21.913Z,39.40
2019-05-20T12:40:21.868Z,39.70
2019-05-20T12:41:21.926Z,38.70
2019-05-20T12:42:21.876Z,38.90
2019-05-20T12:43:21.798Z,37.60
2019-05-20T12:44:21.877Z,38.20
2019-05-20T12:45:21.801Z,37.30
2019-05-20T12:46:21.737Z,38.30
2019-05-20T12:47:21.797Z,38.90
2019-05-20T12:48:21.689Z,38.40
2019-05-20T12:49:21.725Z,38.50
2019-05-20T12:50:21.658Z,37.80
2019-05-20T12:51:21.730Z,37.20
2019-05-20T12:52:21.600Z,37.90